Time;durP1;ratioP1;P1;durP2;ratioP2;P2;SDS_P1;SDS_P2;PMS_P1;PMS_P2;Temp;Humidity;BMP_temperature;BMP_pressure;BME280_temperature;BME280_humidity;BME280_pressure;Samples;Min_cycle;Max_cycle;Signal;HPM_P1;HPM_P2
2021/04/22 00:01:27;;;;;;;5.82;2.33;;;;;;;;;;5134455;28;20102;-77
2021/04/22 00:03:54;;;;;;;4.45;2.50;;;;;;;;;;5135344;28;20030;-77
2021/04/22 00:06:20;;;;;;;4.20;2.60;;;;;;;;;;5134977;28;20023;-77
2021/04/22 00:08:46;;;;;;;6.25;2.40;;;;;;;;;;5134974;28;20023;-77
2021/04/22 00:11:12;;;;;;;6.07;2.53;;;;;;;;;;5116353;28;20027;-77
2021/04/22 00:13:39;;;;;;;7.15;2.75;;;;;;;;;;5135072;28;20115;-77
2021/04/22 00:16:05;;;;;;;7.90;2.80;;;;;;;;;;5117122;28;20030;-77
2021/04/22 00:18:31;;;;;;;4.85;2.33;;;;;;;;;;5095713;28;20054;-77
2021/04/22 00:20:57;;;;;;;5.88;2.50;;;;;;;;;;5114124;28;20027;-77
2021/04/22 00:23:24;;;;;;;5.75;2.85;;;;;;;;;;5096363;28;20030;-77
2021/04/22 00:25:50;;;;;;;5.53;2.67;;;;;;;;;;5095444;28;20495;-77
2021/04/22 00:28:16;;;;;;;6.65;3.05;;;;;;;;;;5114436;28;20395;-77
2021/04/22 00:30:43;;;;;;;6.70;3.15;;;;;;;;;;5120430;28;20030;-77
2021/04/22 00:33:12;;;;;;;4.95;2.72;;;;;;;;;;5135145;28;20034;-77
2021/04/22 00:35:38;;;;;;;4.85;2.80;;;;;;;;;;5134067;28;20093;-77
2021/04/22 00:38:04;;;;;;;5.60;3.05;;;;;;;;;;5135079;28;20028;-77
2021/04/22 00:40:31;;;;;;;5.80;2.63;;;;;;;;;;5116166;28;20034;-77
2021/04/22 00:43:01;;;;;;;4.20;2.70;;;;;;;;;;5116314;28;20044;-77
2021/04/22 00:45:27;;;;;;;6.25;2.50;;;;;;;;;;5138256;27;20019;-77
2021/04/22 00:47:53;;;;;;;3.00;2.70;;;;;;;;;;5138258;27;20019;-77
2021/04/22 00:50:21;;;;;;;4.68;2.70;;;;;;;;;;5138527;27;20023;-77
2021/04/22 00:52:47;;;;;;;4.68;2.70;;;;;;;;;;5138404;27;20019;-77
2021/04/22 00:55:14;;;;;;;4.13;2.78;;;;;;;;;;5139002;27;20023;-77
2021/04/22 00:57:40;;;;;;;5.05;2.78;;;;;;;;;;5138323;27;20069;-77
2021/04/22 01:00:11;;;;;;;4.13;2.97;;;;;;;;;;5120207;27;20026;-78
2021/04/22 01:02:38;;;;;;;4.93;2.95;;;;;;;;;;5138907;27;20034;-79
2021/04/22 01:05:12;;;;;;;3.83;2.60;;;;;;;;;;5139297;27;20019;-79
2021/04/22 01:07:39;;;;;;;11.68;2.70;;;;;;;;;;5139453;27;20475;-79
2021/04/22 01:10:06;;;;;;;5.82;2.95;;;;;;;;;;5139481;27;20601;-80
2021/04/22 01:12:33;;;;;;;5.45;3.50;;;;;;;;;;5139164;27;20023;-80
2021/04/22 01:14:59;;;;;;;7.63;2.78;;;;;;;;;;5130731;27;20476;-79
2021/04/22 01:17:25;;;;;;;4.68;2.83;;;;;;;;;;5118569;28;20035;-79
2021/04/22 01:19:51;;;;;;;4.75;2.70;;;;;;;;;;5100001;28;20042;-79
2021/04/22 01:22:17;;;;;;;4.95;2.83;;;;;;;;;;5118224;28;20028;-79
2021/04/22 01:24:43;;;;;;;5.38;2.83;;;;;;;;;;5118267;28;20490;-79
2021/04/22 01:27:11;;;;;;;5.65;2.80;;;;;;;;;;5100083;28;20028;-79
2021/04/22 01:29:37;;;;;;;10.75;3.20;;;;;;;;;;5118305;28;20398;-79
2021/04/22 01:32:04;;;;;;;4.50;2.95;;;;;;;;;;5118336;28;20030;-79
2021/04/22 01:34:31;;;;;;;6.80;3.88;;;;;;;;;;5117977;28;20020;-79
2021/04/22 01:36:57;;;;;;;5.25;3.20;;;;;;;;;;5118028;28;20059;-79
2021/04/22 01:39:23;;;;;;;5.10;3.13;;;;;;;;;;5118634;28;20031;-79
2021/04/22 01:41:49;;;;;;;4.47;3.20;;;;;;;;;;5118269;28;20113;-79
2021/04/22 01:44:15;;;;;;;8.30;3.70;;;;;;;;;;5118629;28;20501;-79
2021/04/22 01:46:41;;;;;;;8.65;3.00;;;;;;;;;;5099361;28;20471;-79
2021/04/22 01:49:07;;;;;;;9.98;3.17;;;;;;;;;;5118410;28;20019;-79
2021/04/22 01:51:33;;;;;;;4.88;2.90;;;;;;;;;;5118875;28;20020;-79
2021/04/22 01:53:59;;;;;;;5.88;3.10;;;;;;;;;;5118730;28;20050;-79
2021/04/22 01:56:26;;;;;;;4.78;3.65;;;;;;;;;;5099571;28;20508;-79
2021/04/22 01:58:52;;;;;;;6.85;3.00;;;;;;;;;;5118025;28;20024;-79
2021/04/22 02:01:18;;;;;;;8.90;3.20;;;;;;;;;;5099685;28;20040;-79
2021/04/22 02:03:44;;;;;;;4.60;3.08;;;;;;;;;;5099438;28;20583;-79
2021/04/22 02:06:10;;;;;;;7.20;3.15;;;;;;;;;;5118044;28;20514;-79
2021/04/22 02:08:37;;;;;;;5.05;2.88;;;;;;;;;;5134487;27;20019;-79
2021/04/22 02:11:04;;;;;;;5.60;2.88;;;;;;;;;;5138814;27;20035;-79
2021/04/22 02:13:30;;;;;;;6.15;3.53;;;;;;;;;;5138461;27;20089;-79
2021/04/22 02:15:57;;;;;;;7.38;3.75;;;;;;;;;;5102731;28;20059;-79
2021/04/22 02:18:23;;;;;;;4.13;2.85;;;;;;;;;;5117717;28;20024;-79
2021/04/22 02:20:50;;;;;;;4.25;3.22;;;;;;;;;;5117891;28;20479;-79
2021/04/22 02:23:18;;;;;;;7.57;3.50;;;;;;;;;;5118059;28;20020;-79
2021/04/22 02:25:44;;;;;;;4.30;3.00;;;;;;;;;;5117178;28;20400;-79
2021/04/22 02:28:11;;;;;;;6.32;3.35;;;;;;;;;;5117393;28;20088;-80
2021/04/22 02:30:39;;;;;;;8.82;3.40;;;;;;;;;;5117814;28;20035;-80
2021/04/22 02:33:06;;;;;;;5.32;3.30;;;;;;;;;;5117736;28;20049;-79
2021/04/22 02:35:33;;;;;;;6.05;3.38;;;;;;;;;;5116515;28;20122;-79
2021/04/22 02:38:00;;;;;;;7.25;3.75;;;;;;;;;;5117395;28;20036;-79
2021/04/22 02:40:28;;;;;;;7.72;4.03;;;;;;;;;;5130201;27;20088;-79
2021/04/22 02:42:55;;;;;;;6.45;3.45;;;;;;;;;;5117691;28;20036;-80
2021/04/22 02:45:23;;;;;;;5.45;3.83;;;;;;;;;;5117521;28;20399;-79
2021/04/22 02:47:50;;;;;;;7.25;3.60;;;;;;;;;;5098606;28;20028;-79
2021/04/22 02:50:18;;;;;;;11.10;4.10;;;;;;;;;;5116806;28;20047;-79
2021/04/22 02:52:44;;;;;;;4.70;4.05;;;;;;;;;;5117320;28;20071;-79
2021/04/22 02:55:11;;;;;;;6.47;4.00;;;;;;;;;;5098862;28;20031;-79
2021/04/22 02:57:37;;;;;;;6.38;3.30;;;;;;;;;;5116694;28;20028;-79
2021/04/22 03:00:07;;;;;;;7.63;3.83;;;;;;;;;;5116955;28;20098;-79
2021/04/22 03:02:33;;;;;;;5.22;3.42;;;;;;;;;;5099350;28;20500;-79
2021/04/22 03:05:00;;;;;;;5.97;3.40;;;;;;;;;;5117370;28;20024;-79
2021/04/22 03:07:26;;;;;;;6.47;3.45;;;;;;;;;;5097911;28;20024;-79
2021/04/22 03:09:52;;;;;;;6.45;3.28;;;;;;;;;;5116726;28;20024;-79
2021/04/22 03:12:18;;;;;;;6.35;3.20;;;;;;;;;;5108783;27;20121;-79
2021/04/22 03:14:44;;;;;;;4.40;3.03;;;;;;;;;;5130371;27;20085;-79
2021/04/22 03:17:10;;;;;;;6.75;3.15;;;;;;;;;;5116886;28;20031;-79
2021/04/22 03:19:36;;;;;;;5.22;3.30;;;;;;;;;;5117306;28;20047;-79
2021/04/22 03:22:02;;;;;;;7.97;3.47;;;;;;;;;;5117163;28;20387;-80
2021/04/22 03:24:29;;;;;;;7.68;3.47;;;;;;;;;;5116684;28;20028;-80
2021/04/22 03:26:55;;;;;;;7.63;3.38;;;;;;;;;;5116845;28;20019;-80
2021/04/22 03:29:21;;;;;;;5.05;3.72;;;;;;;;;;5116345;28;20036;-80
2021/04/22 03:31:47;;;;;;;9.07;3.80;;;;;;;;;;5117257;28;20425;-80
2021/04/22 03:34:13;;;;;;;7.32;3.67;;;;;;;;;;5116409;28;20031;-80
2021/04/22 03:36:39;;;;;;;5.15;3.03;;;;;;;;;;5116168;28;20070;-80
2021/04/22 03:39:06;;;;;;;7.40;4.00;;;;;;;;;;5116413;28;20077;-80
2021/04/22 03:41:32;;;;;;;10.40;3.90;;;;;;;;;;5097850;28;20020;-80
2021/04/22 03:43:58;;;;;;;4.53;3.15;;;;;;;;;;5116561;28;20028;-80
2021/04/22 03:46:24;;;;;;;8.57;3.47;;;;;;;;;;5116435;28;20039;-80
2021/04/22 03:48:50;;;;;;;5.18;3.35;;;;;;;;;;5114333;28;20031;-80
2021/04/22 03:51:17;;;;;;;5.78;3.55;;;;;;;;;;5116880;28;20302;-80
2021/04/22 03:53:43;;;;;;;7.97;3.88;;;;;;;;;;5116888;28;20436;-80
2021/04/22 03:56:09;;;;;;;6.75;3.47;;;;;;;;;;5116603;28;20063;-80
2021/04/22 03:58:35;;;;;;;7.43;4.30;;;;;;;;;;5115693;28;20027;-79
2021/04/22 04:01:03;;;;;;;8.05;3.58;;;;;;;;;;5116727;28;20016;-79
2021/04/22 04:03:29;;;;;;;6.93;3.65;;;;;;;;;;5118646;28;20184;-80
2021/04/22 04:05:55;;;;;;;6.03;3.20;;;;;;;;;;5136900;28;20045;-80
2021/04/22 04:08:21;;;;;;;4.10;3.67;;;;;;;;;;5136964;28;20452;-80
2021/04/22 04:10:47;;;;;;;4.90;3.60;;;;;;;;;;5136931;28;20030;-80
2021/04/22 04:13:13;;;;;;;5.10;3.63;;;;;;;;;;5118535;28;20436;-80
2021/04/22 04:15:45;;;;;;;5.85;3.38;;;;;;;;;;5121544;28;20027;-80
2021/04/22 04:18:11;;;;;;;9.25;3.83;;;;;;;;;;5116160;28;20031;-80
2021/04/22 04:20:37;;;;;;;14.20;4.47;;;;;;;;;;5120283;28;20015;-80
2021/04/22 04:23:03;;;;;;;7.88;4.13;;;;;;;;;;5120751;28;20490;-79
2021/04/22 04:25:29;;;;;;;5.63;3.38;;;;;;;;;;5118870;28;20053;-79
2021/04/22 04:27:55;;;;;;;8.18;4.57;;;;;;;;;;5120064;28;20089;-79
2021/04/22 04:30:22;;;;;;;8.63;4.38;;;;;;;;;;5119871;28;20031;-79
2021/04/22 04:32:48;;;;;;;5.80;4.10;;;;;;;;;;5120213;28;20015;-80
2021/04/22 04:35:15;;;;;;;5.30;3.95;;;;;;;;;;5119848;28;20019;-80
2021/04/22 04:37:41;;;;;;;5.53;4.18;;;;;;;;;;5119638;28;20036;-80
2021/04/22 04:40:08;;;;;;;8.65;4.25;;;;;;;;;;5117842;28;20070;-80
2021/04/22 04:42:34;;;;;;;8.10;4.60;;;;;;;;;;5119823;28;20368;-80
2021/04/22 04:45:01;;;;;;;7.15;4.22;;;;;;;;;;5119860;28;20028;-80
2021/04/22 04:47:27;;;;;;;6.88;4.47;;;;;;;;;;5100741;28;20027;-79
2021/04/22 04:49:53;;;;;;;6.93;4.38;;;;;;;;;;5119009;27;20016;-79
2021/04/22 04:52:19;;;;;;;5.85;4.50;;;;;;;;;;5120160;28;20019;-79
2021/04/22 04:54:45;;;;;;;10.68;4.82;;;;;;;;;;5119290;28;20019;-79
2021/04/22 04:57:11;;;;;;;9.38;4.28;;;;;;;;;;5119428;28;20114;-79
2021/04/22 04:59:37;;;;;;;7.75;5.05;;;;;;;;;;5118737;28;20026;-79
2021/04/22 05:02:04;;;;;;;11.55;5.32;;;;;;;;;;5120966;27;20402;-79
2021/04/22 05:04:30;;;;;;;10.23;4.80;;;;;;;;;;5139736;27;20035;-79
2021/04/22 05:06:56;;;;;;;10.45;5.10;;;;;;;;;;5139192;27;20030;-79
2021/04/22 05:09:23;;;;;;;8.02;5.03;;;;;;;;;;5139434;27;20024;-79
2021/04/22 05:11:49;;;;;;;13.05;5.25;;;;;;;;;;5140026;27;20027;-79
2021/04/22 05:14:15;;;;;;;7.55;4.97;;;;;;;;;;5136907;27;20020;-79
2021/04/22 05:16:41;;;;;;;5.63;4.50;;;;;;;;;;5118487;28;20035;-79
2021/04/22 05:19:07;;;;;;;8.73;5.60;;;;;;;;;;5099864;28;20023;-79
2021/04/22 05:21:34;;;;;;;8.73;5.00;;;;;;;;;;5132252;27;20038;-79
2021/04/22 05:24:00;;;;;;;7.97;5.10;;;;;;;;;;5138937;27;20019;-79
2021/04/22 05:26:26;;;;;;;13.50;6.00;;;;;;;;;;5139217;27;20031;-79
2021/04/22 05:28:55;;;;;;;15.93;6.10;;;;;;;;;;5120573;27;20056;-79
2021/04/22 05:31:21;;;;;;;11.10;5.50;;;;;;;;;;5100965;28;20034;-79
2021/04/22 05:33:47;;;;;;;9.30;5.65;;;;;;;;;;5133380;27;20047;-79
2021/04/22 05:36:13;;;;;;;8.60;5.55;;;;;;;;;;5138651;27;20047;-79
2021/04/22 05:38:40;;;;;;;7.10;5.45;;;;;;;;;;5138499;27;20051;-79
2021/04/22 05:41:06;;;;;;;8.00;5.20;;;;;;;;;;5133138;27;20049;-79
2021/04/22 05:43:32;;;;;;;12.60;5.53;;;;;;;;;;5118436;28;20068;-79
2021/04/22 05:45:59;;;;;;;8.15;5.45;;;;;;;;;;5118993;28;20078;-80
2021/04/22 05:48:25;;;;;;;8.57;5.40;;;;;;;;;;5118541;28;20024;-80
2021/04/22 05:50:51;;;;;;;7.20;5.00;;;;;;;;;;5118363;28;20038;-80
2021/04/22 05:53:17;;;;;;;4.72;4.25;;;;;;;;;;5119641;27;20031;-80
2021/04/22 05:55:43;;;;;;;8.55;5.07;;;;;;;;;;5118579;28;20096;-80
2021/04/22 05:58:10;;;;;;;12.95;5.50;;;;;;;;;;5120342;27;20488;-80
2021/04/22 06:00:36;;;;;;;7.03;4.88;;;;;;;;;;5134572;27;20510;-80
2021/04/22 06:03:02;;;;;;;10.23;5.18;;;;;;;;;;5117938;28;20509;-80
2021/04/22 06:05:28;;;;;;;7.78;4.90;;;;;;;;;;5118749;28;20058;-80
2021/04/22 06:07:54;;;;;;;7.43;5.07;;;;;;;;;;5099635;28;20398;-80
2021/04/22 06:10:22;;;;;;;14.35;5.40;;;;;;;;;;5110927;28;20016;-80
2021/04/22 06:12:48;;;;;;;11.15;4.75;;;;;;;;;;5098217;28;20016;-80
2021/04/22 06:15:15;;;;;;;8.82;5.07;;;;;;;;;;5090446;28;20077;-80
2021/04/22 06:17:41;;;;;;;13.23;5.50;;;;;;;;;;5118277;28;20031;-80
2021/04/22 06:20:09;;;;;;;8.27;5.55;;;;;;;;;;5118264;28;20391;-80
2021/04/22 06:22:35;;;;;;;9.32;5.30;;;;;;;;;;5099325;28;20046;-80
2021/04/22 06:25:01;;;;;;;9.93;5.75;;;;;;;;;;5118017;27;20027;-80
2021/04/22 06:27:28;;;;;;;10.35;4.88;;;;;;;;;;5117489;28;20028;-82
2021/04/22 06:29:54;;;;;;;7.72;4.45;;;;;;;;;;5115691;28;20028;-79
2021/04/22 06:32:20;;;;;;;5.45;4.55;;;;;;;;;;5117690;28;20372;-79
2021/04/22 06:34:46;;;;;;;10.18;4.68;;;;;;;;;;5117443;28;20027;-79
2021/04/22 06:37:12;;;;;;;10.65;5.40;;;;;;;;;;5099374;28;20051;-79
2021/04/22 06:39:39;;;;;;;7.68;4.88;;;;;;;;;;5098958;28;20157;-79
2021/04/22 06:42:05;;;;;;;10.23;4.95;;;;;;;;;;5116649;28;20073;-79
2021/04/22 06:44:31;;;;;;;7.70;4.93;;;;;;;;;;5117627;28;20035;-79
2021/04/22 06:46:59;;;;;;;14.30;6.57;;;;;;;;;;5118630;27;20028;-79
2021/04/22 06:49:25;;;;;;;13.35;6.43;;;;;;;;;;5123653;27;20081;-78
2021/04/22 06:51:51;;;;;;;8.90;5.88;;;;;;;;;;5116182;27;20031;-78
2021/04/22 06:54:17;;;;;;;9.00;5.80;;;;;;;;;;5110637;28;20084;-78
2021/04/22 06:56:43;;;;;;;16.98;6.38;;;;;;;;;;5098334;27;20080;-78
2021/04/22 06:59:09;;;;;;;14.57;6.10;;;;;;;;;;5114139;28;20066;-79
2021/04/22 07:01:36;;;;;;;16.42;6.57;;;;;;;;;;5084952;28;20028;-78
2021/04/22 07:04:02;;;;;;;11.70;6.45;;;;;;;;;;5101772;28;20590;-78
2021/04/22 07:06:28;;;;;;;12.95;6.93;;;;;;;;;;5096246;28;20161;-78
2021/04/22 07:08:54;;;;;;;10.50;6.45;;;;;;;;;;5101921;28;20507;-79
2021/04/22 07:11:20;;;;;;;8.40;6.65;;;;;;;;;;5126162;27;20631;-79
2021/04/22 07:13:46;;;;;;;13.77;6.82;;;;;;;;;;5117506;27;20107;-78
2021/04/22 07:16:12;;;;;;;17.63;7.20;;;;;;;;;;5104805;28;20406;-79
2021/04/22 07:18:39;;;;;;;8.70;6.47;;;;;;;;;;5096307;28;20028;-78
2021/04/22 07:21:05;;;;;;;28.20;8.63;;;;;;;;;;5077813;28;20748;-78
2021/04/22 07:23:31;;;;;;;13.02;7.28;;;;;;;;;;5114171;28;20030;-78
2021/04/22 07:25:57;;;;;;;13.95;7.13;;;;;;;;;;5105426;28;20023;-79
2021/04/22 07:28:23;;;;;;;7.97;6.15;;;;;;;;;;5113409;28;20016;-78
2021/04/22 07:30:49;;;;;;;8.45;5.65;;;;;;;;;;5116860;27;20062;-79
2021/04/22 07:33:16;;;;;;;9.90;6.38;;;;;;;;;;5112172;28;20015;-78
2021/04/22 07:35:42;;;;;;;8.90;6.32;;;;;;;;;;5109659;28;20043;-76
2021/04/22 07:38:12;;;;;;;8.70;6.13;;;;;;;;;;5109844;27;20026;-78
2021/04/22 07:40:39;;;;;;;9.15;6.28;;;;;;;;;;5092067;28;20572;-77
2021/04/22 07:43:05;;;;;;;6.72;5.82;;;;;;;;;;5116415;28;20485;-76
2021/04/22 07:45:34;;;;;;;8.65;5.38;;;;;;;;;;5118348;28;20031;-77
2021/04/22 07:48:00;;;;;;;12.93;5.88;;;;;;;;;;5100714;28;20590;-78
2021/04/22 07:50:27;;;;;;;9.48;5.60;;;;;;;;;;5132233;28;20394;-78
2021/04/22 07:52:53;;;;;;;8.27;5.05;;;;;;;;;;5129108;27;20016;-80
2021/04/22 07:55:25;;;;;;;9.20;5.38;;;;;;;;;;5123597;27;20106;-79
2021/04/22 07:57:52;;;;;;;13.63;5.50;;;;;;;;;;5137212;27;20023;-78
2021/04/22 08:00:20;;;;;;;8.30;4.82;;;;;;;;;;5130793;27;20532;-77
2021/04/22 08:02:46;;;;;;;9.90;5.38;;;;;;;;;;5118061;27;20113;-79
2021/04/22 08:05:13;;;;;;;7.22;5.15;;;;;;;;;;5128270;27;20034;-78
2021/04/22 08:07:39;;;;;;;8.13;5.80;;;;;;;;;;5130160;27;20023;-79
2021/04/22 08:10:07;;;;;;;18.25;5.90;;;;;;;;;;5106853;28;20028;-77
2021/04/22 08:12:34;;;;;;;9.98;5.30;;;;;;;;;;5130129;27;20027;-78
2021/04/22 08:15:00;;;;;;;7.90;4.90;;;;;;;;;;5128218;27;20030;-78
2021/04/22 08:17:27;;;;;;;13.73;5.35;;;;;;;;;;5123019;27;20031;-79
2021/04/22 08:19:53;;;;;;;9.43;4.82;;;;;;;;;;5136896;27;20047;-79
2021/04/22 08:22:19;;;;;;;9.13;4.60;;;;;;;;;;5133051;27;20027;-78
2021/04/22 08:24:45;;;;;;;10.88;5.35;;;;;;;;;;5118311;27;20033;-78
2021/04/22 08:27:11;;;;;;;9.82;4.25;;;;;;;;;;5133024;27;20505;-77
2021/04/22 08:29:37;;;;;;;6.57;4.38;;;;;;;;;;5133770;27;20055;-78
2021/04/22 08:32:04;;;;;;;9.55;4.57;;;;;;;;;;5128844;27;20382;-78
2021/04/22 08:34:30;;;;;;;7.13;4.15;;;;;;;;;;5114112;27;20138;-78
2021/04/22 08:36:56;;;;;;;9.00;4.80;;;;;;;;;;5106864;27;20047;-79
2021/04/22 08:39:22;;;;;;;8.95;4.85;;;;;;;;;;5107859;28;20089;-79
2021/04/22 08:41:48;;;;;;;10.40;5.68;;;;;;;;;;5132587;27;20031;-80
2021/04/22 08:44:14;;;;;;;9.60;5.90;;;;;;;;;;5116744;27;20027;-80
2021/04/22 08:46:42;;;;;;;10.65;4.90;;;;;;;;;;5121323;27;20031;-79
2021/04/22 08:49:09;;;;;;;8.10;5.03;;;;;;;;;;5104729;27;20035;-78
2021/04/22 08:51:35;;;;;;;12.30;5.28;;;;;;;;;;5130985;27;20433;-79
2021/04/22 08:54:03;;;;;;;8.23;5.75;;;;;;;;;;5127704;27;20054;-79
2021/04/22 08:56:32;;;;;;;9.45;5.53;;;;;;;;;;5118120;27;20062;-79
2021/04/22 08:58:59;;;;;;;11.32;5.82;;;;;;;;;;5109052;27;20027;-78
2021/04/22 09:01:25;;;;;;;9.57;5.25;;;;;;;;;;5137645;27;20015;-79
2021/04/22 09:03:52;;;;;;;10.27;5.82;;;;;;;;;;5103802;28;20024;-79
2021/04/22 09:06:18;;;;;;;9.25;5.75;;;;;;;;;;5115206;27;20806;-81
2021/04/22 09:08:46;;;;;;;8.13;5.93;;;;;;;;;;5102827;27;20347;-79
2021/04/22 09:11:14;;;;;;;10.65;5.68;;;;;;;;;;5102789;28;20107;-78
2021/04/22 09:13:40;;;;;;;12.65;5.90;;;;;;;;;;5098644;28;20042;-77
2021/04/22 09:16:14;;;;;;;10.85;5.35;;;;;;;;;;5126650;27;20015;-78
2021/04/22 09:18:42;;;;;;;14.15;6.65;;;;;;;;;;5117912;27;20028;-78
2021/04/22 09:21:17;;;;;;;15.40;6.28;;;;;;;;;;5098418;27;20015;-76
2021/04/22 09:23:54;;;;;;;11.27;5.95;;;;;;;;;;5115075;27;20023;-76
2021/04/22 09:26:20;;;;;;;9.98;5.60;;;;;;;;;;5122388;27;20031;-78
2021/04/22 09:28:47;;;;;;;11.73;5.80;;;;;;;;;;5116912;27;20031;-78
2021/04/22 09:31:24;;;;;;;7.50;5.15;;;;;;;;;;5124595;27;20042;-77
2021/04/22 09:34:01;;;;;;;9.35;4.78;;;;;;;;;;5111604;27;20062;-78
2021/04/22 09:36:38;;;;;;;5.68;4.75;;;;;;;;;;5133817;27;20041;-78
2021/04/22 09:39:05;;;;;;;11.32;4.55;;;;;;;;;;5126936;27;20019;-77
2021/04/22 09:41:34;;;;;;;11.05;4.57;;;;;;;;;;5125902;27;20039;-80
2021/04/22 09:44:01;;;;;;;8.68;5.15;;;;;;;;;;5113611;27;20034;-79
2021/04/22 09:46:27;;;;;;;9.25;4.45;;;;;;;;;;5117467;27;20670;-79
2021/04/22 09:48:53;;;;;;;10.73;4.25;;;;;;;;;;5118239;28;20034;-80
2021/04/22 09:51:31;;;;;;;9.15;5.30;;;;;;;;;;5119423;28;20016;-78
2021/04/22 09:54:05;;;;;;;7.60;3.67;;;;;;;;;;5098023;28;20035;-79
2021/04/22 09:56:46;;;;;;;6.43;3.20;;;;;;;;;;5099193;28;20036;-78
2021/04/22 09:59:18;;;;;;;6.20;3.03;;;;;;;;;;5100126;28;20040;-79
2021/04/22 10:01:45;;;;;;;5.85;3.08;;;;;;;;;;5124201;28;20019;-79
2021/04/22 10:04:13;;;;;;;5.65;2.55;;;;;;;;;;5141605;27;20031;-80
2021/04/22 10:06:40;;;;;;;6.72;3.35;;;;;;;;;;5108080;28;20122;-80
2021/04/22 10:09:06;;;;;;;11.10;3.33;;;;;;;;;;5114355;28;20052;-80
2021/04/22 10:12:01;;;;;;;7.40;3.65;;;;;;;;;;5121372;27;20022;-80
2021/04/22 10:14:35;;;;;;;6.32;3.40;;;;;;;;;;5085583;28;20034;-79
2021/04/22 10:17:12;;;;;;;7.85;3.58;;;;;;;;;;5099050;28;20030;-79
2021/04/22 10:19:38;;;;;;;6.20;3.40;;;;;;;;;;5105783;28;20114;-79
2021/04/22 10:22:05;;;;;;;6.78;3.95;;;;;;;;;;5107192;27;20027;-79
2021/04/22 10:24:31;;;;;;;9.68;3.70;;;;;;;;;;5113121;27;20144;-79
2021/04/22 10:27:00;;;;;;;9.23;4.00;;;;;;;;;;5121237;28;20032;-80
2021/04/22 10:29:26;;;;;;;7.07;3.80;;;;;;;;;;5119318;27;20128;-81
2021/04/22 10:31:52;;;;;;;9.23;4.03;;;;;;;;;;5113503;27;20020;-79
2021/04/22 10:34:19;;;;;;;8.93;3.85;;;;;;;;;;5102900;28;20024;-79
2021/04/22 10:36:45;;;;;;;10.15;4.07;;;;;;;;;;5100921;28;20043;-80
2021/04/22 10:39:12;;;;;;;8.13;4.20;;;;;;;;;;5109083;28;20031;-79
2021/04/22 10:41:40;;;;;;;6.82;3.80;;;;;;;;;;5086518;28;20027;-78
2021/04/22 10:44:06;;;;;;;7.22;4.05;;;;;;;;;;5111565;28;20084;-78
2021/04/22 10:46:36;;;;;;;11.90;6.82;;;;;;;;;;5112953;28;20023;-78
2021/04/22 10:49:04;;;;;;;5.65;3.53;;;;;;;;;;5132989;27;20019;-78
2021/04/22 10:51:30;;;;;;;6.20;3.67;;;;;;;;;;5107955;28;20110;-78
2021/04/22 10:53:56;;;;;;;5.20;3.08;;;;;;;;;;5104377;27;20106;-79
2021/04/22 10:56:26;;;;;;;5.75;3.22;;;;;;;;;;5117316;27;20034;-79
2021/04/22 10:58:52;;;;;;;5.60;2.42;;;;;;;;;;5114259;28;20055;-78
2021/04/22 11:01:18;;;;;;;7.90;2.60;;;;;;;;;;5096217;28;20111;-78
2021/04/22 11:03:46;;;;;;;3.40;2.25;;;;;;;;;;5095125;28;20482;-78
2021/04/22 11:06:15;;;;;;;8.30;2.75;;;;;;;;;;5113788;28;20043;-79
2021/04/22 11:08:41;;;;;;;4.35;2.40;;;;;;;;;;5114861;27;20055;-78
2021/04/22 11:11:26;;;;;;;5.60;2.08;;;;;;;;;;5135219;27;20015;-79
2021/04/22 11:14:06;;;;;;;5.40;1.60;;;;;;;;;;5134355;27;20023;-78
2021/04/22 11:16:34;;;;;;;6.60;1.90;;;;;;;;;;5128369;27;20023;-79
2021/04/22 11:19:00;;;;;;;4.45;1.70;;;;;;;;;;5127542;27;20039;-78
2021/04/22 11:21:26;;;;;;;4.25;2.53;;;;;;;;;;5114005;28;20027;-78
2021/04/22 11:23:53;;;;;;;3.92;2.38;;;;;;;;;;5114107;28;20050;-78
2021/04/22 11:26:20;;;;;;;3.13;1.60;;;;;;;;;;5115551;28;20098;-79
2021/04/22 11:28:47;;;;;;;3.67;2.08;;;;;;;;;;5114696;28;20402;-78
2021/04/22 11:31:14;;;;;;;3.20;1.80;;;;;;;;;;5115900;28;20020;-78
2021/04/22 11:33:41;;;;;;;7.80;1.98;;;;;;;;;;5114203;28;20032;-78
2021/04/22 11:36:13;;;;;;;2.90;1.70;;;;;;;;;;5114868;27;20584;-78
2021/04/22 11:38:57;;;;;;;2.30;1.75;;;;;;;;;;5114140;28;20054;-78
2021/04/22 11:41:25;;;;;;;2.63;1.40;;;;;;;;;;5117641;28;20073;-79
2021/04/22 11:44:07;;;;;;;4.28;1.75;;;;;;;;;;5102307;28;20028;-79
2021/04/22 11:46:40;;;;;;;3.42;1.88;;;;;;;;;;5115884;28;20055;-79
2021/04/22 11:49:07;;;;;;;3.20;1.67;;;;;;;;;;5102626;28;20031;-79
2021/04/22 11:51:35;;;;;;;1.98;1.17;;;;;;;;;;5106593;28;20143;-80
2021/04/22 11:54:01;;;;;;;6.47;1.30;;;;;;;;;;5120582;28;20046;-79
2021/04/22 11:56:27;;;;;;;3.83;1.48;;;;;;;;;;5117189;28;20319;-79
2021/04/22 11:58:54;;;;;;;1.73;1.40;;;;;;;;;;5103648;28;20020;-79
2021/04/22 12:01:20;;;;;;;1.60;0.95;;;;;;;;;;5101309;28;20438;-77
2021/04/22 12:03:46;;;;;;;4.30;1.30;;;;;;;;;;5095958;28;20027;-79
2021/04/22 12:06:14;;;;;;;3.53;1.70;;;;;;;;;;5106308;28;20079;-80
2021/04/22 12:08:42;;;;;;;2.40;0.90;;;;;;;;;;5120236;28;20016;-79
2021/04/22 12:11:10;;;;;;;2.83;1.20;;;;;;;;;;5117130;28;20032;-81
2021/04/22 12:13:36;;;;;;;2.55;1.38;;;;;;;;;;5120420;28;20023;-80
2021/04/22 12:16:04;;;;;;;2.70;1.50;;;;;;;;;;5124566;28;20024;-80
2021/04/22 12:18:34;;;;;;;2.88;2.05;;;;;;;;;;5118608;28;20153;-79
2021/04/22 12:21:12;;;;;;;2.22;1.30;;;;;;;;;;5134443;28;20270;-81
2021/04/22 12:23:45;;;;;;;1.55;1.10;;;;;;;;;;5100884;28;20167;-80
2021/04/22 12:26:15;;;;;;;8.75;2.20;;;;;;;;;;5097714;28;20050;-80
2021/04/22 12:29:01;;;;;;;3.92;1.30;;;;;;;;;;5126842;28;20144;-81
2021/04/22 12:31:28;;;;;;;2.50;0.90;;;;;;;;;;5106706;28;20024;-79
2021/04/22 12:33:55;;;;;;;3.50;1.33;;;;;;;;;;5133580;28;20424;-79
2021/04/22 12:36:21;;;;;;;3.25;1.00;;;;;;;;;;5118929;28;20473;-79
2021/04/22 12:38:48;;;;;;;2.67;0.90;;;;;;;;;;5121518;27;20027;-79
2021/04/22 12:41:16;;;;;;;1.35;0.90;;;;;;;;;;5113511;27;20040;-79
2021/04/22 12:43:43;;;;;;;1.45;0.90;;;;;;;;;;5099868;28;20567;-79
2021/04/22 12:46:17;;;;;;;1.50;1.10;;;;;;;;;;5094903;28;20027;-79
2021/04/22 12:48:44;;;;;;;1.10;0.90;;;;;;;;;;5120290;27;20084;-80
2021/04/22 12:51:11;;;;;;;4.90;1.25;;;;;;;;;;5141346;27;20030;-79
2021/04/22 12:53:45;;;;;;;1.10;0.90;;;;;;;;;;5125937;27;20023;-82
2021/04/22 12:56:13;;;;;;;3.20;1.00;;;;;;;;;;5104250;27;20019;-82
2021/04/22 12:58:46;;;;;;;1.92;0.98;;;;;;;;;;5128162;27;20019;-81
2021/04/22 13:01:14;;;;;;;1.75;1.08;;;;;;;;;;5127277;28;20031;-81
2021/04/22 13:03:45;;;;;;;1.83;0.90;;;;;;;;;;5107653;28;20516;-80
2021/04/22 13:06:12;;;;;;;2.75;1.63;;;;;;;;;;5125972;28;20035;-80
2021/04/22 13:08:41;;;;;;;3.83;1.40;;;;;;;;;;5107721;28;20016;-80
2021/04/22 13:11:09;;;;;;;2.05;1.05;;;;;;;;;;5123402;28;20058;-80
2021/04/22 13:13:40;;;;;;;2.15;1.20;;;;;;;;;;5126229;28;20024;-80
2021/04/22 13:16:08;;;;;;;2.53;1.33;;;;;;;;;;5108446;28;20027;-80
2021/04/22 13:18:35;;;;;;;2.15;1.00;;;;;;;;;;5106347;28;20092;-81
2021/04/22 13:21:01;;;;;;;1.85;0.90;;;;;;;;;;5104670;28;20041;-79
2021/04/22 13:23:35;;;;;;;1.63;1.17;;;;;;;;;;5104952;27;20024;-79
2021/04/22 13:26:12;;;;;;;1.88;1.30;;;;;;;;;;5101087;28;20031;-78
2021/04/22 13:28:38;;;;;;;4.05;1.48;;;;;;;;;;5124549;28;20490;-79
2021/04/22 13:31:12;;;;;;;10.18;2.05;;;;;;;;;;5107328;28;20085;-79
2021/04/22 13:33:38;;;;;;;2.00;0.90;;;;;;;;;;5121239;28;20077;-80
2021/04/22 13:36:06;;;;;;;4.05;1.30;;;;;;;;;;5123466;27;20047;-80
2021/04/22 13:38:32;;;;;;;1.30;1.05;;;;;;;;;;5122268;28;20563;-80
2021/04/22 13:41:12;;;;;;;1.90;0.90;;;;;;;;;;5098478;28;20264;-80
2021/04/22 13:43:41;;;;;;;3.22;1.10;;;;;;;;;;5121491;28;20024;-79
2021/04/22 13:46:07;;;;;;;4.53;1.23;;;;;;;;;;5103805;28;20038;-80
2021/04/22 13:48:34;;;;;;;1.75;1.02;;;;;;;;;;5101178;28;20348;-77
2021/04/22 13:51:11;;;;;;;1.38;1.13;;;;;;;;;;5104015;28;20016;-80
2021/04/22 13:53:37;;;;;;;4.03;1.27;;;;;;;;;;5102190;28;20050;-80
2021/04/22 13:56:03;;;;;;;1.92;1.58;;;;;;;;;;5122813;27;20027;-80
2021/04/22 13:58:30;;;;;;;3.60;1.30;;;;;;;;;;5115004;28;20081;-80
2021/04/22 14:00:56;;;;;;;3.55;1.55;;;;;;;;;;5101282;28;20509;-79
2021/04/22 14:03:30;;;;;;;1.75;1.05;;;;;;;;;;5121712;28;20031;-81
2021/04/22 14:05:56;;;;;;;3.13;1.33;;;;;;;;;;5092235;28;20035;-81
2021/04/22 14:08:27;;;;;;;2.80;1.40;;;;;;;;;;5099360;27;20054;-81
2021/04/22 14:10:58;;;;;;;1.83;1.10;;;;;;;;;;5111394;27;20499;-80
2021/04/22 14:13:26;;;;;;;1.70;1.15;;;;;;;;;;5124339;28;20035;-80
2021/04/22 14:15:52;;;;;;;2.10;1.10;;;;;;;;;;5125153;28;20047;-81
2021/04/22 14:18:18;;;;;;;3.45;1.33;;;;;;;;;;5105598;28;20012;-80
2021/04/22 14:20:44;;;;;;;2.92;1.45;;;;;;;;;;5124134;28;20085;-81
2021/04/22 14:23:10;;;;;;;3.33;1.20;;;;;;;;;;5102060;28;20028;-81
2021/04/22 14:25:36;;;;;;;1.80;1.10;;;;;;;;;;5089463;28;20020;-80
2021/04/22 14:28:03;;;;;;;1.45;1.20;;;;;;;;;;5098449;28;20027;-78
2021/04/22 14:30:29;;;;;;;3.45;1.42;;;;;;;;;;5102463;27;20034;-78
2021/04/22 14:32:55;;;;;;;2.88;1.10;;;;;;;;;;5126605;27;20081;-79
2021/04/22 14:35:21;;;;;;;3.67;1.27;;;;;;;;;;5099497;27;20076;-78
2021/04/22 14:37:47;;;;;;;3.35;1.50;;;;;;;;;;5110839;27;20027;-78
2021/04/22 14:40:14;;;;;;;2.35;1.23;;;;;;;;;;5141589;27;20038;-78
2021/04/22 14:42:40;;;;;;;1.92;1.20;;;;;;;;;;5111698;27;20027;-80